Etusivu
METAR-TAF:

METAR-TAF

Lentoasemat :

Bessemer, Alabama, Yhdysvallat

Leveyspiiri: 33-18-45N, Pituuspiiri: 086-55-35W, korkeus merenpinnasta: 213 m

Tämänhetkinen sää

Tämä raportti tehtiin 28 minuuttia sitten, kello 06.56 UTC
Tuuli 4 kn pohjoisesta
Lämpötila 26°C
Kosteus 58%
Ilmanpaine 1016 hPa
Näkyvyys: 16.1 km
selkeää

METAR: KEKY 170656Z AUTO 36004KT 10SM CLR 26/17 A3001 RMK AO2 SLP008 T02560172

Aika: 02:24 (07:24 UTC)


TAF: puuttuu

Säähavainnot ja -ennusteet yli 4000 lentoasemalta (METAR- ja TAF-raportit).

Käytössä olevat sääasemat on merkitty karttaan keltaisilla ja punaisilla pisteillä.

Aseta hiiri pisteen päälle nähdäksesi sääaseman nimen.

Klikkaa sitten nähdäksesi säähavainnot ja -ennusteet.

Kartan vaihtaminen: klikkaa mustalla rastilla varustettuja vihreitä pisteitä, niin voit zoomata sisään; viivalla varustettua vihreää pistettä, niin voit zoomata ulos tai vihreitä nuolia, niin pääset viereisille kartoille.


METAR-TAF: